createdAt,value
2022-09-28T00:00:08.565Z,0.00
2022-09-28T00:01:08.565Z,0.00
2022-09-28T00:02:08.633Z,0.00
2022-09-28T00:03:08.594Z,0.00
2022-09-28T00:04:08.522Z,0.00
2022-09-28T00:05:08.512Z,0.00
2022-09-28T00:06:08.502Z,0.00
2022-09-28T00:07:08.505Z,0.00
2022-09-28T00:08:08.477Z,0.00
2022-09-28T00:09:09.496Z,0.00
2022-09-28T00:10:08.467Z,0.00
2022-09-28T00:11:08.452Z,0.00
2022-09-28T00:12:08.460Z,0.00
2022-09-28T00:13:08.430Z,0.00
2022-09-28T00:14:09.429Z,0.00
2022-09-28T00:15:08.421Z,0.00
2022-09-28T00:16:08.431Z,0.00
2022-09-28T00:17:08.410Z,0.00
2022-09-28T00:18:08.404Z,0.00
2022-09-28T00:19:08.390Z,0.00
2022-09-28T00:20:08.374Z,0.00
2022-09-28T00:21:08.372Z,0.00
2022-09-28T00:22:08.367Z,0.00
2022-09-28T00:23:08.348Z,0.00
2022-09-28T00:24:08.338Z,0.00
2022-09-28T00:25:08.329Z,0.00
2022-09-28T00:26:08.315Z,0.00
2022-09-28T00:27:08.316Z,0.00
2022-09-28T00:28:08.297Z,0.00
2022-09-28T00:29:08.289Z,0.00
2022-09-28T00:30:08.278Z,0.00
2022-09-28T00:31:08.280Z,0.00
2022-09-28T00:32:08.276Z,0.00
2022-09-28T00:33:08.246Z,0.00
2022-09-28T00:34:08.295Z,0.00
2022-09-28T00:35:08.225Z,0.00
2022-09-28T00:36:08.222Z,0.00
2022-09-28T00:37:08.224Z,0.00
2022-09-28T00:38:08.200Z,0.00
2022-09-28T00:39:08.189Z,0.00
2022-09-28T00:40:08.181Z,0.00
2022-09-28T00:41:08.173Z,0.00
2022-09-28T00:42:08.171Z,0.00
2022-09-28T00:43:08.151Z,0.00
2022-09-28T00:44:08.143Z,0.00
2022-09-28T00:45:08.134Z,0.00
2022-09-28T00:46:08.182Z,0.00
2022-09-28T00:47:08.120Z,0.00
2022-09-28T00:48:08.099Z,0.00
2022-09-28T00:49:08.092Z,0.00
2022-09-28T00:50:08.085Z,0.00
2022-09-28T00:51:08.073Z,0.00
2022-09-28T00:52:08.069Z,0.00
2022-09-28T00:53:08.056Z,0.00
2022-09-28T00:54:08.037Z,0.00
2022-09-28T00:55:08.036Z,0.00
2022-09-28T00:56:08.021Z,0.00
2022-09-28T00:57:08.024Z,0.00
2022-09-28T00:58:08.007Z,0.00
2022-09-28T00:59:07.999Z,0.00
2022-09-28T01:00:07.989Z,0.00
2022-09-28T01:01:08.007Z,0.00
2022-09-28T01:02:08.007Z,0.00
2022-09-28T01:03:07.982Z,0.00
2022-09-28T01:04:07.951Z,0.00
2022-09-28T01:05:07.940Z,0.00
2022-09-28T01:06:07.923Z,0.00
2022-09-28T01:07:07.931Z,0.00
2022-09-28T01:08:07.913Z,0.00
2022-09-28T01:09:07.898Z,0.00
2022-09-28T01:10:07.889Z,0.00
2022-09-28T01:11:07.884Z,0.00
2022-09-28T01:12:07.884Z,0.00
2022-09-28T01:13:07.862Z,0.00
2022-09-28T01:14:07.854Z,0.00
2022-09-28T01:15:07.846Z,0.00
2022-09-28T01:16:07.871Z,0.00
2022-09-28T01:17:07.843Z,0.00
2022-09-28T01:18:07.820Z,0.00
2022-09-28T01:19:07.846Z,0.00
2022-09-28T01:20:07.822Z,0.00
2022-09-28T01:21:07.802Z,0.00
2022-09-28T01:22:07.798Z,0.00
2022-09-28T01:23:07.778Z,0.00
2022-09-28T01:24:07.764Z,0.00
2022-09-28T01:25:07.754Z,0.00
2022-09-28T01:26:07.746Z,0.00
2022-09-28T01:27:07.750Z,0.00
2022-09-28T01:28:07.779Z,0.00
2022-09-28T01:29:07.717Z,0.00
2022-09-28T01:30:07.709Z,0.00
2022-09-28T01:31:07.793Z,0.00
2022-09-28T01:32:07.695Z,0.00
2022-09-28T01:33:07.675Z,0.00
2022-09-28T01:34:07.666Z,0.00
2022-09-28T01:35:07.657Z,0.00
2022-09-28T01:36:07.651Z,0.00
2022-09-28T01:37:07.654Z,0.00
2022-09-28T01:38:07.631Z,0.00
2022-09-28T01:39:07.629Z,0.00
2022-09-28T01:40:07.614Z,0.00
2022-09-28T01:41:07.606Z,0.00
2022-09-28T01:42:07.601Z,0.00
2022-09-28T01:43:07.590Z,0.00
2022-09-28T01:44:07.573Z,0.00
2022-09-28T01:45:07.564Z,0.00
2022-09-28T01:46:07.579Z,0.00
2022-09-28T01:47:07.557Z,0.00
2022-09-28T01:48:07.541Z,0.00
2022-09-28T01:49:07.533Z,0.00
2022-09-28T01:50:07.521Z,0.00
2022-09-28T01:51:07.514Z,0.00
2022-09-28T01:52:07.512Z,0.00
2022-09-28T01:53:07.491Z,0.00
2022-09-28T01:54:07.482Z,0.00
2022-09-28T01:55:07.473Z,0.00
2022-09-28T01:56:07.463Z,0.00
2022-09-28T01:57:07.461Z,0.00
2022-09-28T01:58:07.448Z,0.00
2022-09-28T01:59:07.441Z,0.00
2022-09-28T02:00:07.429Z,0.00
2022-09-28T02:01:07.460Z,0.00
2022-09-28T02:02:07.485Z,0.00
2022-09-28T02:03:07.404Z,0.00
2022-09-28T02:04:07.392Z,0.00
2022-09-28T02:05:07.387Z,0.00
2022-09-28T02:06:07.377Z,0.00
2022-09-28T02:07:07.378Z,0.00
2022-09-28T02:08:07.353Z,0.00
2022-09-28T02:09:07.346Z,0.00
2022-09-28T02:10:07.337Z,0.00
2022-09-28T02:11:07.325Z,0.00
2022-09-28T02:12:07.357Z,0.00
2022-09-28T02:13:07.309Z,0.00
2022-09-28T02:14:07.298Z,0.00
2022-09-28T02:15:07.292Z,0.00
2022-09-28T02:16:07.377Z,0.00
2022-09-28T02:17:07.294Z,0.00
2022-09-28T02:18:07.264Z,0.00
2022-09-28T02:19:07.256Z,0.00
2022-09-28T02:20:07.250Z,0.00
2022-09-28T02:21:07.237Z,0.00
2022-09-28T02:22:07.234Z,0.00
2022-09-28T02:23:07.222Z,0.00
2022-09-28T02:24:07.208Z,0.00
2022-09-28T02:25:07.201Z,0.00
2022-09-28T02:26:07.188Z,0.00
2022-09-28T02:27:07.197Z,0.00
2022-09-28T02:28:07.170Z,0.00
2022-09-28T02:29:07.168Z,0.00
2022-09-28T02:30:07.156Z,0.00
2022-09-28T02:31:07.220Z,0.00
2022-09-28T02:32:07.147Z,0.00
2022-09-28T02:33:07.122Z,0.00
2022-09-28T02:34:07.121Z,0.00
2022-09-28T02:35:07.106Z,0.00
2022-09-28T02:36:07.096Z,0.00
2022-09-28T02:37:07.095Z,0.00
2022-09-28T02:38:07.073Z,0.00
2022-09-28T02:39:07.068Z,0.00
2022-09-28T02:40:07.054Z,0.00
2022-09-28T02:41:07.053Z,0.00
2022-09-28T02:42:07.053Z,0.00
2022-09-28T02:43:07.027Z,0.00
2022-09-28T02:44:07.019Z,0.00
2022-09-28T02:45:07.001Z,0.00
2022-09-28T02:46:08.103Z,0.00
2022-09-28T02:47:07.003Z,0.00
2022-09-28T02:48:06.982Z,0.00
2022-09-28T02:49:20.791Z,0.00
2022-09-28T02:50:08.969Z,0.00
2022-09-28T02:51:06.957Z,0.00
2022-09-28T02:52:06.954Z,0.00
2022-09-28T02:53:06.938Z,0.00
2022-09-28T02:54:06.925Z,0.00
2022-09-28T02:55:06.918Z,0.00
2022-09-28T02:56:06.907Z,0.00
2022-09-28T02:57:06.913Z,0.00
2022-09-28T02:58:06.898Z,0.00
2022-09-28T02:59:06.887Z,0.00
2022-09-28T03:00:06.878Z,0.00
2022-09-28T03:01:06.917Z,0.00
2022-09-28T03:02:06.982Z,0.00
2022-09-28T03:03:06.844Z,0.00
2022-09-28T03:04:06.836Z,0.00
2022-09-28T03:05:06.826Z,0.00
2022-09-28T03:06:06.817Z,0.00
2022-09-28T03:07:06.815Z,0.00
2022-09-28T03:08:06.800Z,0.00
2022-09-28T03:09:06.793Z,0.00
2022-09-28T03:10:06.777Z,0.00
2022-09-28T03:11:06.766Z,0.00
2022-09-28T03:12:06.778Z,0.00
2022-09-28T03:13:06.747Z,0.00
2022-09-28T03:14:06.738Z,0.00
2022-09-28T03:15:06.730Z,0.00
2022-09-28T03:16:06.761Z,0.00
2022-09-28T03:17:06.717Z,0.00
2022-09-28T03:18:06.704Z,0.00
2022-09-28T03:19:06.689Z,0.00
2022-09-28T03:20:06.681Z,0.00
2022-09-28T03:21:06.672Z,0.00
2022-09-28T03:22:06.672Z,0.00
2022-09-28T03:23:23.984Z,0.00
2022-09-28T03:24:08.642Z,0.00
2022-09-28T03:25:06.631Z,0.00
2022-09-28T03:26:06.648Z,0.00
2022-09-28T03:27:06.627Z,0.00
2022-09-28T03:28:06.596Z,0.00
2022-09-28T03:29:06.602Z,0.00
2022-09-28T03:30:06.581Z,0.00
2022-09-28T03:31:06.605Z,0.00
2022-09-28T03:32:06.578Z,0.00
2022-09-28T03:33:06.549Z,0.00
2022-09-28T03:34:06.546Z,0.00
2022-09-28T03:35:06.538Z,0.00
2022-09-28T03:36:06.520Z,0.00
2022-09-28T03:37:06.524Z,0.00
2022-09-28T03:38:06.502Z,0.00
2022-09-28T03:39:06.495Z,0.00
2022-09-28T03:40:06.487Z,0.00
2022-09-28T03:41:06.475Z,0.00
2022-09-28T03:42:06.471Z,0.00
2022-09-28T03:43:06.451Z,0.00
2022-09-28T03:44:06.442Z,0.00
2022-09-28T03:45:06.438Z,0.00
2022-09-28T03:46:06.448Z,0.00
2022-09-28T03:47:06.437Z,0.00
2022-09-28T03:48:06.408Z,0.00
2022-09-28T03:49:06.396Z,0.00
2022-09-28T03:50:06.388Z,0.00
2022-09-28T03:51:06.382Z,0.00
2022-09-28T03:52:06.385Z,0.00
2022-09-28T03:53:06.358Z,0.00
2022-09-28T03:54:06.354Z,0.00
2022-09-28T03:55:06.347Z,0.00
2022-09-28T03:56:06.335Z,0.00
2022-09-28T03:57:06.332Z,0.00
2022-09-28T03:58:06.314Z,0.00
2022-09-28T03:59:06.307Z,0.00
2022-09-28T04:00:06.294Z,0.00
2022-09-28T04:01:06.420Z,0.00
2022-09-28T04:02:06.311Z,0.00
2022-09-28T04:03:06.279Z,0.00
2022-09-28T04:04:06.256Z,0.00
2022-09-28T04:05:06.268Z,0.00
2022-09-28T04:06:06.237Z,0.00
2022-09-28T04:07:06.237Z,0.00
2022-09-28T04:08:06.219Z,0.00
2022-09-28T04:09:06.214Z,0.00
2022-09-28T04:10:06.197Z,0.00
2022-09-28T04:11:06.189Z,0.00
2022-09-28T04:12:06.177Z,0.00
2022-09-28T04:13:06.178Z,0.00
2022-09-28T04:14:06.153Z,0.00
2022-09-28T04:15:06.151Z,0.00
2022-09-28T04:16:06.195Z,0.00
2022-09-28T04:17:06.136Z,0.00
2022-09-28T04:18:06.132Z,0.00
2022-09-28T04:19:06.112Z,0.00
2022-09-28T04:20:06.103Z,0.00
2022-09-28T04:21:06.094Z,0.00
2022-09-28T04:22:06.085Z,0.00
2022-09-28T04:23:06.091Z,0.00
2022-09-28T04:24:06.072Z,0.00
2022-09-28T04:25:06.077Z,0.00
2022-09-28T04:26:06.051Z,0.00
2022-09-28T04:27:06.046Z,0.00
2022-09-28T04:28:06.047Z,0.00
2022-09-28T04:29:06.919Z,0.00
2022-09-28T04:30:07.016Z,0.00
2022-09-28T04:31:06.009Z,0.00
2022-09-28T04:32:06.066Z,0.00
2022-09-28T04:33:05.993Z,0.00
2022-09-28T04:34:05.978Z,0.00
2022-09-28T04:35:05.970Z,0.00
2022-09-28T04:36:05.961Z,0.00
2022-09-28T04:37:05.952Z,0.00
2022-09-28T04:38:05.953Z,0.00
2022-09-28T04:39:05.932Z,0.00
2022-09-28T04:40:05.938Z,0.00
2022-09-28T04:41:05.916Z,0.00
2022-09-28T04:42:05.910Z,0.00
2022-09-28T04:43:05.911Z,0.00
2022-09-28T04:44:05.893Z,0.00
2022-09-28T04:45:05.896Z,0.00
2022-09-28T04:46:05.928Z,0.00
2022-09-28T04:47:05.864Z,0.00
2022-09-28T04:48:05.867Z,0.00
2022-09-28T04:49:05.846Z,0.00
2022-09-28T04:50:05.839Z,0.00
2022-09-28T04:51:05.835Z,0.00
2022-09-28T04:52:05.835Z,0.00
2022-09-28T04:53:05.817Z,0.00
2022-09-28T04:54:05.804Z,0.00
2022-09-28T04:55:05.794Z,0.00
2022-09-28T04:56:05.785Z,0.00
2022-09-28T04:57:05.778Z,0.00
2022-09-28T04:58:05.777Z,0.00
2022-09-28T04:59:05.760Z,0.00
2022-09-28T05:00:05.747Z,0.00
2022-09-28T05:01:05.804Z,0.00
2022-09-28T05:02:05.765Z,0.00
2022-09-28T05:03:05.746Z,0.00
2022-09-28T05:04:05.718Z,0.00
2022-09-28T05:05:05.707Z,0.00
2022-09-28T05:06:05.694Z,0.00
2022-09-28T05:07:05.691Z,0.00
2022-09-28T05:08:05.692Z,0.00
2022-09-28T05:09:05.669Z,0.00
2022-09-28T05:10:05.672Z,0.00
2022-09-28T05:11:05.654Z,0.00
2022-09-28T05:12:05.639Z,0.00
2022-09-28T05:13:05.637Z,0.00
2022-09-28T05:14:05.618Z,0.00
2022-09-28T05:15:05.608Z,0.00
2022-09-28T05:16:05.830Z,0.00
2022-09-28T05:17:06.594Z,0.00
2022-09-28T05:18:05.590Z,0.00
2022-09-28T05:19:05.574Z,0.00
2022-09-28T05:20:05.579Z,0.00
2022-09-28T05:21:05.553Z,0.00
2022-09-28T05:22:05.554Z,0.00
2022-09-28T05:23:05.551Z,0.00
2022-09-28T05:24:05.530Z,0.00
2022-09-28T05:25:05.519Z,0.00
2022-09-28T05:26:05.514Z,0.00
2022-09-28T05:27:05.505Z,0.00
2022-09-28T05:28:05.508Z,0.00
2022-09-28T05:29:05.491Z,0.00
2022-09-28T05:30:05.481Z,0.00
2022-09-28T05:31:06.484Z,0.00
2022-09-28T05:32:05.515Z,0.00
2022-09-28T05:33:05.457Z,0.00
2022-09-28T05:34:05.439Z,0.00
2022-09-28T05:35:05.433Z,0.00
2022-09-28T05:36:05.424Z,0.00
2022-09-28T05:37:05.412Z,0.00
2022-09-28T05:38:05.411Z,0.00
2022-09-28T05:39:05.390Z,0.00
2022-09-28T05:40:05.385Z,0.00
2022-09-28T05:41:06.672Z,0.00
2022-09-28T05:42:06.363Z,5.62
2022-09-28T05:43:05.364Z,5.62
2022-09-28T05:44:05.347Z,5.62
2022-09-28T05:45:05.337Z,5.62
2022-09-28T05:46:05.372Z,5.62
2022-09-28T05:47:05.311Z,11.25
2022-09-28T05:48:05.319Z,11.25
2022-09-28T05:49:05.301Z,11.25
2022-09-28T05:50:05.289Z,11.25
2022-09-28T05:51:05.274Z,11.25
2022-09-28T05:52:05.272Z,11.25
2022-09-28T05:53:05.272Z,11.25
2022-09-28T05:54:06.323Z,11.25
2022-09-28T05:55:06.241Z,11.25
2022-09-28T05:56:05.231Z,11.25
2022-09-28T05:57:05.223Z,11.25
2022-09-28T05:58:05.221Z,16.88
2022-09-28T05:59:05.203Z,16.88
2022-09-28T06:00:05.194Z,16.88
2022-09-28T06:01:05.223Z,16.88
2022-09-28T06:02:05.217Z,16.88
2022-09-28T06:03:08.655Z,16.88
2022-09-28T06:04:06.150Z,16.88
2022-09-28T06:05:05.143Z,16.88
2022-09-28T06:06:05.130Z,22.50
2022-09-28T06:07:05.121Z,22.50
2022-09-28T06:08:05.225Z,22.50
2022-09-28T06:09:05.108Z,28.12
2022-09-28T06:10:05.096Z,28.12
2022-09-28T06:11:05.086Z,28.12
2022-09-28T06:12:05.084Z,33.75
2022-09-28T06:13:05.075Z,33.75
2022-09-28T06:14:05.056Z,39.38
2022-09-28T06:15:05.051Z,45.00
2022-09-28T06:16:05.044Z,45.00
2022-09-28T06:17:05.063Z,50.62
2022-09-28T06:18:05.037Z,50.62
2022-09-28T06:19:05.016Z,50.62
2022-09-28T06:20:05.002Z,50.62
2022-09-28T06:21:04.997Z,50.62
2022-09-28T06:22:04.987Z,50.62
2022-09-28T06:23:05.025Z,50.62
2022-09-28T06:24:04.991Z,50.62
2022-09-28T06:25:04.956Z,50.62
2022-09-28T06:26:04.946Z,50.62
2022-09-28T06:27:04.938Z,50.62
2022-09-28T06:28:04.938Z,50.62
2022-09-28T06:29:04.917Z,50.62
2022-09-28T06:30:04.911Z,50.62
2022-09-28T06:31:05.029Z,50.62
2022-09-28T06:32:04.926Z,50.62
2022-09-28T06:33:04.891Z,50.62
2022-09-28T06:34:05.874Z,50.62
2022-09-28T06:35:04.902Z,50.62
2022-09-28T06:36:04.853Z,50.62
2022-09-28T06:37:04.844Z,50.62
2022-09-28T06:38:04.843Z,50.62
2022-09-28T06:39:04.823Z,50.62
2022-09-28T06:40:04.812Z,50.62
2022-09-28T06:41:04.848Z,50.62
2022-09-28T06:42:04.794Z,50.62
2022-09-28T06:43:04.791Z,45.00
2022-09-28T06:44:04.787Z,45.00
2022-09-28T06:45:04.779Z,50.62
2022-09-28T06:46:04.839Z,50.62
2022-09-28T06:47:04.752Z,50.62
2022-09-28T06:48:04.757Z,50.62
2022-09-28T06:49:04.735Z,50.62
2022-09-28T06:50:04.739Z,50.62
2022-09-28T06:51:04.716Z,50.62
2022-09-28T06:52:04.707Z,50.62
2022-09-28T06:53:04.699Z,50.62
2022-09-28T06:54:04.700Z,56.25
2022-09-28T06:55:04.707Z,61.88
2022-09-28T06:56:04.674Z,67.50
2022-09-28T06:57:04.660Z,67.50
2022-09-28T06:58:04.665Z,78.75
2022-09-28T06:59:04.644Z,101.25
2022-09-28T07:00:04.642Z,101.25
2022-09-28T07:01:04.647Z,101.25
2022-09-28T07:02:04.649Z,95.62
2022-09-28T07:03:04.621Z,90.00
2022-09-28T07:04:04.610Z,67.50
2022-09-28T07:05:04.594Z,50.62
2022-09-28T07:06:04.582Z,39.38
2022-09-28T07:07:04.577Z,28.12
2022-09-28T07:08:04.575Z,22.50
2022-09-28T07:09:18.651Z,22.50
2022-09-28T07:10:06.567Z,33.75
2022-09-28T07:11:04.540Z,33.75
2022-09-28T07:12:04.535Z,39.38
2022-09-28T07:13:04.631Z,50.62
2022-09-28T07:14:04.527Z,45.00
2022-09-28T07:15:04.505Z,39.38
2022-09-28T07:16:04.500Z,39.38
2022-09-28T07:17:14.177Z,39.38
2022-09-28T07:18:06.517Z,50.62
2022-09-28T07:19:04.469Z,39.38
2022-09-28T07:20:16.007Z,33.75
2022-09-28T07:21:06.457Z,33.75
2022-09-28T07:22:05.675Z,33.75
2022-09-28T07:23:17.068Z,28.12
2022-09-28T07:24:06.422Z,28.12
2022-09-28T07:25:04.411Z,39.38
2022-09-28T07:26:06.720Z,45.00
2022-09-28T07:27:04.388Z,56.25
2022-09-28T07:28:05.396Z,67.50
2022-09-28T07:29:05.372Z,90.00
2022-09-28T07:30:04.365Z,95.62
2022-09-28T07:31:04.411Z,101.25
2022-09-28T07:32:04.348Z,118.12
2022-09-28T07:33:04.348Z,168.75
2022-09-28T07:34:04.364Z,191.25
2022-09-28T07:35:04.317Z,196.88
2022-09-28T07:36:04.308Z,157.50
2022-09-28T07:37:04.303Z,84.38
2022-09-28T07:38:04.295Z,56.25
2022-09-28T07:39:04.295Z,56.25
2022-09-28T07:40:04.283Z,67.50
2022-09-28T07:41:04.340Z,84.38
2022-09-28T07:42:04.259Z,106.88
2022-09-28T07:43:04.272Z,112.50
2022-09-28T07:44:04.250Z,123.75
2022-09-28T07:45:04.229Z,135.00
2022-09-28T07:46:04.254Z,151.88
2022-09-28T07:47:04.210Z,135.00
2022-09-28T07:48:04.262Z,135.00
2022-09-28T07:49:07.012Z,140.62
2022-09-28T07:50:05.183Z,146.25
2022-09-28T07:51:04.171Z,140.62
2022-09-28T07:52:04.160Z,157.50
2022-09-28T07:53:04.151Z,151.88
2022-09-28T07:54:04.153Z,140.62
2022-09-28T07:55:07.003Z,123.75
2022-09-28T07:56:05.125Z,118.12
2022-09-28T07:57:04.114Z,146.25
2022-09-28T07:58:04.108Z,140.62
2022-09-28T07:59:04.109Z,123.75
2022-09-28T08:00:04.108Z,112.50
2022-09-28T08:01:04.169Z,112.50
2022-09-28T08:02:04.152Z,101.25
2022-09-28T08:03:04.058Z,78.75
2022-09-28T08:04:04.060Z,73.12
2022-09-28T08:05:04.038Z,78.75
2022-09-28T08:06:04.025Z,78.75
2022-09-28T08:07:04.013Z,73.12
2022-09-28T08:08:05.006Z,78.75
2022-09-28T08:09:04.008Z,95.62
2022-09-28T08:10:03.985Z,112.50
2022-09-28T08:11:03.981Z,106.88
2022-09-28T08:12:03.973Z,101.25
2022-09-28T08:13:06.381Z,101.25
2022-09-28T08:14:03.972Z,106.88
2022-09-28T08:15:03.940Z,101.25
2022-09-28T08:16:03.949Z,101.25
2022-09-28T08:17:03.930Z,135.00
2022-09-28T08:18:03.912Z,168.75
2022-09-28T08:19:03.915Z,180.00
2022-09-28T08:20:03.939Z,180.00
2022-09-28T08:21:03.887Z,140.62
2022-09-28T08:22:03.875Z,118.12
2022-09-28T08:23:03.865Z,95.62
2022-09-28T08:24:03.866Z,78.75
2022-09-28T08:25:03.847Z,61.88
2022-09-28T08:26:03.836Z,56.25
2022-09-28T08:27:03.827Z,50.62
2022-09-28T08:28:03.810Z,56.25
2022-09-28T08:29:04.325Z,50.62
2022-09-28T08:30:03.803Z,50.62
2022-09-28T08:31:03.863Z,67.50
2022-09-28T08:32:03.770Z,90.00
2022-09-28T08:33:03.761Z,106.88
2022-09-28T08:34:03.762Z,129.38
2022-09-28T08:35:03.746Z,146.25
2022-09-28T08:36:03.734Z,151.88
2022-09-28T08:37:03.724Z,174.38
2022-09-28T08:38:03.711Z,731.25
2022-09-28T08:39:03.710Z,613.12
2022-09-28T08:40:03.695Z,270.00
2022-09-28T08:41:03.800Z,343.12
2022-09-28T08:42:03.666Z,618.75
2022-09-28T08:43:03.661Z,331.88
2022-09-28T08:44:03.660Z,635.62
2022-09-28T08:45:03.659Z,900.00
2022-09-28T08:46:03.712Z,236.25
2022-09-28T08:47:03.617Z,213.75
2022-09-28T08:48:03.614Z,196.88
2022-09-28T08:50:05.598Z,191.25
2022-09-28T08:51:03.582Z,202.50
2022-09-28T08:52:03.569Z,191.25
2022-09-28T08:53:03.563Z,196.88
2022-09-28T08:54:05.806Z,196.88
2022-09-28T08:55:03.563Z,208.12
2022-09-28T08:56:03.536Z,196.88
2022-09-28T08:57:03.530Z,219.38
2022-09-28T08:58:03.507Z,208.12
2022-09-28T08:59:03.510Z,180.00
2022-09-28T09:00:04.709Z,174.38
2022-09-28T09:01:03.538Z,151.88
2022-09-28T09:02:03.633Z,135.00
2022-09-28T09:03:03.463Z,129.38
2022-09-28T09:04:03.498Z,168.75
2022-09-28T09:05:03.442Z,157.50
2022-09-28T09:06:03.429Z,174.38
2022-09-28T09:07:03.425Z,157.50
2022-09-28T09:08:03.413Z,163.12
2022-09-28T09:09:03.414Z,168.75
2022-09-28T09:10:03.394Z,151.88
2022-09-28T09:11:03.393Z,208.12
2022-09-28T09:12:03.375Z,196.88
2022-09-28T09:13:03.363Z,196.88
2022-09-28T09:14:03.400Z,208.12
2022-09-28T09:15:03.358Z,213.75
2022-09-28T09:16:03.329Z,219.38
2022-09-28T09:17:03.364Z,208.12
2022-09-28T09:18:03.312Z,225.00
2022-09-28T09:19:03.317Z,258.75
2022-09-28T09:20:03.301Z,236.25
2022-09-28T09:21:03.293Z,253.12
2022-09-28T09:22:03.268Z,286.88
2022-09-28T09:23:03.260Z,320.62
2022-09-28T09:24:03.267Z,286.88
2022-09-28T09:25:03.235Z,365.62
2022-09-28T09:26:03.229Z,382.50
2022-09-28T09:27:03.217Z,275.62
2022-09-28T09:28:03.211Z,264.38
2022-09-28T09:29:03.204Z,281.25
2022-09-28T09:30:03.183Z,275.62
2022-09-28T09:31:03.203Z,281.25
2022-09-28T09:32:03.181Z,303.75
2022-09-28T09:33:03.156Z,315.00
2022-09-28T09:34:03.154Z,320.62
2022-09-28T09:35:03.133Z,303.75
2022-09-28T09:36:03.132Z,360.00
2022-09-28T09:37:03.114Z,337.50
2022-09-28T09:38:03.104Z,315.00
2022-09-28T09:39:03.103Z,303.75
2022-09-28T09:40:03.088Z,264.38
2022-09-28T09:41:03.181Z,213.75
2022-09-28T09:42:03.071Z,225.00
2022-09-28T09:43:03.058Z,236.25
2022-09-28T09:44:03.056Z,225.00
2022-09-28T09:45:03.036Z,219.38
2022-09-28T09:46:03.091Z,230.62
2022-09-28T09:47:03.019Z,219.38
2022-09-28T09:48:03.018Z,219.38
2022-09-28T09:49:03.009Z,202.50
2022-09-28T09:50:06.789Z,219.38
2022-09-28T09:51:04.977Z,191.25
2022-09-28T09:52:02.979Z,157.50
2022-09-28T09:53:02.964Z,168.75
2022-09-28T09:54:02.960Z,157.50
2022-09-28T09:55:02.942Z,163.12
2022-09-28T09:56:02.927Z,185.62
2022-09-28T09:57:02.944Z,146.25
2022-09-28T09:58:02.913Z,129.38
2022-09-28T09:59:02.908Z,135.00
2022-09-28T10:00:02.883Z,180.00
2022-09-28T10:01:02.920Z,213.75
2022-09-28T10:02:02.963Z,230.62
2022-09-28T10:03:02.852Z,253.12
2022-09-28T10:04:02.856Z,298.12
2022-09-28T10:05:02.834Z,326.25
2022-09-28T10:06:02.826Z,298.12
2022-09-28T10:07:02.817Z,320.62
2022-09-28T10:08:02.810Z,365.62
2022-09-28T10:09:02.812Z,348.75
2022-09-28T10:10:02.796Z,472.50
2022-09-28T10:11:02.774Z,461.25
2022-09-28T10:12:02.768Z,365.62
2022-09-28T10:13:02.765Z,354.38
2022-09-28T10:14:02.766Z,315.00
2022-09-28T10:15:02.740Z,292.50
2022-09-28T10:16:02.734Z,281.25
2022-09-28T10:17:02.879Z,309.38
2022-09-28T10:18:02.708Z,348.75
2022-09-28T10:19:02.718Z,393.75
2022-09-28T10:20:02.691Z,444.38
2022-09-28T10:21:02.676Z,376.88
2022-09-28T10:22:02.667Z,433.12
2022-09-28T10:23:02.657Z,500.62
2022-09-28T10:24:02.767Z,680.62
2022-09-28T10:25:02.638Z,703.12
2022-09-28T10:26:02.637Z,714.38
2022-09-28T10:27:02.622Z,303.75
2022-09-28T10:28:02.608Z,292.50
2022-09-28T10:29:02.608Z,270.00
2022-09-28T10:30:02.627Z,247.50
2022-09-28T10:31:02.707Z,253.12
2022-09-28T10:32:02.567Z,298.12
2022-09-28T10:33:02.554Z,343.12
2022-09-28T10:34:02.552Z,613.12
2022-09-28T10:35:02.529Z,270.00
2022-09-28T10:36:02.523Z,275.62
2022-09-28T10:37:02.511Z,236.25
2022-09-28T10:38:02.510Z,219.38
2022-09-28T10:39:02.508Z,196.88
2022-09-28T10:40:02.492Z,202.50
2022-09-28T10:41:02.527Z,185.62
2022-09-28T10:42:02.462Z,208.12
2022-09-28T10:43:02.453Z,196.88
2022-09-28T10:44:02.451Z,151.88
2022-09-28T10:45:02.434Z,135.00
2022-09-28T10:46:02.505Z,140.62
2022-09-28T10:47:02.417Z,135.00
2022-09-28T10:48:02.404Z,140.62
2022-09-28T10:49:02.413Z,135.00
2022-09-28T10:50:02.381Z,135.00
2022-09-28T10:51:02.378Z,146.25
2022-09-28T10:52:02.367Z,174.38
2022-09-28T10:53:02.354Z,174.38
2022-09-28T10:54:02.352Z,157.50
2022-09-28T10:55:02.334Z,151.88
2022-09-28T10:56:02.321Z,151.88
2022-09-28T10:57:02.354Z,146.25
2022-09-28T10:58:02.302Z,146.25
2022-09-28T10:59:02.308Z,135.00
2022-09-28T11:00:02.283Z,123.75
2022-09-28T11:01:02.330Z,112.50
2022-09-28T11:02:02.355Z,101.25
2022-09-28T11:03:02.264Z,95.62
2022-09-28T11:04:02.254Z,95.62
2022-09-28T11:05:02.232Z,90.00
2022-09-28T11:06:02.223Z,90.00
2022-09-28T11:07:02.335Z,95.62
2022-09-28T11:08:02.204Z,101.25
2022-09-28T11:09:02.204Z,106.88
2022-09-28T11:10:02.187Z,129.38
2022-09-28T11:11:02.187Z,157.50
2022-09-28T11:12:02.162Z,174.38
2022-09-28T11:13:02.151Z,185.62
2022-09-28T11:14:02.153Z,405.00
2022-09-28T11:15:02.153Z,382.50
2022-09-28T11:16:02.124Z,787.50
2022-09-28T11:17:02.153Z,714.38
2022-09-28T11:18:02.104Z,590.62
2022-09-28T11:19:02.107Z,483.75
2022-09-28T11:20:02.081Z,376.88
2022-09-28T11:21:02.093Z,534.38
2022-09-28T11:22:02.061Z,371.25
2022-09-28T11:23:02.051Z,399.38
2022-09-28T11:24:02.051Z,483.75
2022-09-28T11:25:02.043Z,292.50
2022-09-28T11:26:02.018Z,281.25
2022-09-28T11:27:02.014Z,489.38
2022-09-28T11:28:02.000Z,551.25
2022-09-28T11:29:01.984Z,517.50
2022-09-28T11:30:01.985Z,500.62
2022-09-28T11:31:02.035Z,371.25
2022-09-28T11:32:01.952Z,416.25
2022-09-28T11:33:01.975Z,388.12
2022-09-28T11:34:01.942Z,320.62
2022-09-28T11:35:01.925Z,416.25
2022-09-28T11:36:01.911Z,483.75
2022-09-28T11:37:02.080Z,478.12
2022-09-28T11:38:01.892Z,461.25
2022-09-28T11:39:01.885Z,444.38
2022-09-28T11:40:01.895Z,444.38
2022-09-28T11:41:01.899Z,511.88
2022-09-28T11:42:01.875Z,495.00
2022-09-28T11:43:01.917Z,236.25
2022-09-28T11:44:01.850Z,517.50
2022-09-28T11:45:01.866Z,483.75
2022-09-28T11:46:01.843Z,450.00
2022-09-28T11:47:01.803Z,236.25
2022-09-28T11:48:01.798Z,376.88
2022-09-28T11:49:01.791Z,270.00
2022-09-28T11:50:01.870Z,354.38
2022-09-28T11:51:01.766Z,275.62
2022-09-28T11:52:01.762Z,196.88
2022-09-28T11:53:01.753Z,185.62
2022-09-28T11:54:01.737Z,208.12
2022-09-28T11:55:01.737Z,225.00
2022-09-28T11:56:05.314Z,371.25
2022-09-28T11:57:03.711Z,320.62
2022-09-28T11:58:01.698Z,326.25
2022-09-28T11:59:01.689Z,309.38
2022-09-28T12:00:01.696Z,303.75
2022-09-28T12:01:01.675Z,298.12
2022-09-28T12:02:01.738Z,298.12
2022-09-28T12:03:01.739Z,219.38
2022-09-28T12:04:01.652Z,348.75
2022-09-28T12:05:01.640Z,326.25
2022-09-28T12:06:01.619Z,151.88
2022-09-28T12:07:01.615Z,140.62
2022-09-28T12:08:01.595Z,163.12
2022-09-28T12:09:01.592Z,281.25
2022-09-28T12:10:01.629Z,315.00
2022-09-28T12:11:01.566Z,320.62
2022-09-28T12:12:01.566Z,343.12
2022-09-28T12:13:01.549Z,376.88
2022-09-28T12:14:01.540Z,258.75
2022-09-28T12:15:01.542Z,270.00
2022-09-28T12:16:32.293Z,253.12
2022-09-28T12:17:07.355Z,236.25
2022-09-28T12:18:02.538Z,241.88
2022-09-28T12:19:01.698Z,281.25
2022-09-28T12:20:01.546Z,281.25
2022-09-28T12:21:05.101Z,326.25
2022-09-28T12:22:02.460Z,382.50
2022-09-28T12:23:01.460Z,303.75
2022-09-28T12:24:01.442Z,365.62
2022-09-28T12:25:01.440Z,315.00
2022-09-28T12:26:01.418Z,247.50
2022-09-28T12:27:01.414Z,213.75
2022-09-28T12:28:01.407Z,180.00
2022-09-28T12:29:01.396Z,163.12
2022-09-28T12:30:01.388Z,157.50
2022-09-28T12:31:01.394Z,157.50
2022-09-28T12:32:01.357Z,157.50
2022-09-28T12:33:01.344Z,157.50
2022-09-28T12:34:01.342Z,146.25
2022-09-28T12:35:01.339Z,135.00
2022-09-28T12:36:01.326Z,123.75
2022-09-28T12:37:01.303Z,112.50
2022-09-28T12:38:01.294Z,101.25
2022-09-28T12:40:03.657Z,101.25
2022-09-28T12:41:01.354Z,101.25
2022-09-28T12:42:01.252Z,101.25
2022-09-28T12:43:01.237Z,101.25
2022-09-28T12:44:01.236Z,106.88
2022-09-28T12:45:01.227Z,106.88
2022-09-28T12:46:13.100Z,101.25
2022-09-28T12:47:03.248Z,95.62
2022-09-28T12:48:01.190Z,95.62
2022-09-28T12:51:03.239Z,106.88
2022-09-28T12:52:01.151Z,106.88
2022-09-28T12:53:03.090Z,101.25
2022-09-28T12:54:01.144Z,101.25
2022-09-28T12:55:01.229Z,112.50
2022-09-28T12:56:01.116Z,118.12
2022-09-28T12:57:01.104Z,118.12
2022-09-28T12:58:01.091Z,129.38